Time;durP1;ratioP1;P1;durP2;ratioP2;P2;SDS_P1;SDS_P2;PMS_P1;PMS_P2;Temp;Humidity;BMP_temperature;BMP_pressure;BME280_temperature;BME280_humidity;BME280_pressure;Samples;Min_cycle;Max_cycle;Signal;HPM_P1;HPM_P2
2020/12/05 09:48:19;;;;;;;3.57;1.20;;;6.20;99.90;;;;;;4934313;29;20623;-64
2020/12/05 09:50:46;;;;;;;2.47;1.23;;;6.10;99.90;;;;;;4937328;29;20220;-64
2020/12/05 09:53:12;;;;;;;1.30;0.73;;;6.10;99.90;;;;;;4944522;29;20232;-65
2020/12/05 09:55:39;;;;;;;4.27;1.17;;;6.20;99.90;;;;;;4956971;29;20247;-66
2020/12/05 09:58:05;;;;;;;3.73;0.80;;;6.30;99.90;;;;;;4957324;29;20204;-71
2020/12/05 10:00:32;;;;;;;3.37;1.07;;;6.20;99.90;;;;;;4954231;29;20213;-66
2020/12/05 10:02:58;;;;;;;1.13;0.73;;;6.20;99.90;;;;;;4937647;29;20245;-65
2020/12/05 10:05:25;;;;;;;1.27;0.90;;;6.20;99.90;;;;;;4937887;29;20208;-64
2020/12/05 10:07:52;;;;;;;1.97;1.00;;;6.20;99.90;;;;;;4938289;29;20213;-69
2020/12/05 10:10:18;;;;;;;2.50;1.10;;;6.10;99.90;;;;;;4937852;29;20213;-65
2020/12/05 10:12:45;;;;;;;3.97;0.93;;;6.00;99.90;;;;;;4937698;29;20233;-65
2020/12/05 10:15:13;;;;;;;1.87;0.90;;;6.00;99.90;;;;;;4937894;29;20247;-65
2020/12/05 10:17:39;;;;;;;1.67;0.60;;;6.00;99.90;;;;;;4938187;29;20221;-65
2020/12/05 10:20:06;;;;;;;1.93;0.87;;;6.00;99.90;;;;;;4937313;29;20220;-64
2020/12/05 10:22:33;;;;;;;1.13;0.80;;;6.10;99.90;;;;;;4936961;29;20228;-65
2020/12/05 10:25:01;;;;;;;2.20;0.80;;;6.30;99.90;;;;;;4937676;29;20208;-76
2020/12/05 10:27:27;;;;;;;3.83;0.87;;;6.40;99.90;;;;;;4914533;29;20617;-75
2020/12/05 10:29:53;;;;;;;0.87;0.77;;;6.60;99.90;;;;;;4916863;29;20214;-72
2020/12/05 10:32:19;;;;;;;2.77;0.70;;;6.70;99.90;;;;;;4916781;29;20220;-72
2020/12/05 10:34:46;;;;;;;2.20;0.70;;;6.70;99.90;;;;;;4922535;29;20240;-67
2020/12/05 10:37:12;;;;;;;1.07;0.67;;;6.70;99.90;;;;;;4928487;29;20684;-66
2020/12/05 10:39:39;;;;;;;1.73;0.70;;;6.60;99.90;;;;;;4916571;29;20665;-68
2020/12/05 10:42:05;;;;;;;0.80;0.50;;;6.70;99.90;;;;;;4916605;29;20224;-67
2020/12/05 10:44:31;;;;;;;0.80;0.60;;;6.90;99.90;;;;;;4917259;29;20236;-68
2020/12/05 10:46:58;;;;;;;1.17;0.60;;;6.90;99.90;;;;;;4933287;29;20230;-73
2020/12/05 10:49:28;;;;;;;2.60;0.87;;;6.90;99.90;;;;;;4946423;28;20293;-70
2020/12/05 10:51:54;;;;;;;1.87;0.60;;;6.70;99.90;;;;;;4935431;29;20303;-71
2020/12/05 10:54:21;;;;;;;2.17;0.73;;;6.60;99.90;;;;;;4932126;29;20247;-73
2020/12/05 10:56:48;;;;;;;2.17;0.70;;;6.70;99.90;;;;;;4924850;29;20208;-68
2020/12/05 10:59:14;;;;;;;1.50;0.80;;;6.70;99.90;;;;;;4925944;29;20209;-72
2020/12/05 11:01:41;;;;;;;1.37;0.40;;;6.70;99.90;;;;;;4918483;29;20594;-74
2020/12/05 11:04:07;;;;;;;1.43;0.70;;;6.50;99.90;;;;;;4916431;29;20260;-71
2020/12/05 11:06:33;;;;;;;2.50;1.00;;;6.50;99.90;;;;;;4923779;29;20205;-72
2020/12/05 11:08:59;;;;;;;1.80;0.57;;;6.50;99.90;;;;;;4926414;29;20227;-69
2020/12/05 11:11:25;;;;;;;2.00;0.70;;;6.60;99.90;;;;;;4920631;29;20589;-72
2020/12/05 11:13:53;;;;;;;2.37;0.70;;;6.60;99.90;;;;;;4923177;29;20236;-70
2020/12/05 11:16:19;;;;;;;3.13;0.73;;;6.80;99.90;;;;;;4920628;29;20252;-70
2020/12/05 11:18:47;;;;;;;1.40;0.70;;;6.90;99.90;;;;;;4926378;29;20213;-72
2020/12/05 11:21:13;;;;;;;1.83;0.80;;;7.00;99.90;;;;;;4923952;29;20217;-68
2020/12/05 11:23:39;;;;;;;1.03;0.57;;;6.90;99.90;;;;;;4919682;29;20238;-67
2020/12/05 11:26:05;;;;;;;0.80;0.53;;;6.80;99.90;;;;;;4921420;29;20205;-67
2020/12/05 11:28:32;;;;;;;2.60;0.60;;;6.80;99.90;;;;;;4918953;29;20572;-68
2020/12/05 11:30:59;;;;;;;1.00;0.70;;;6.80;99.90;;;;;;4919052;29;20236;-66
2020/12/05 11:33:25;;;;;;;1.10;0.60;;;6.80;99.90;;;;;;4915215;29;20650;-67
2020/12/05 11:35:51;;;;;;;1.17;0.53;;;6.80;99.90;;;;;;4919498;29;20236;-69
2020/12/05 11:38:18;;;;;;;0.60;0.37;;;6.80;99.90;;;;;;4922133;29;20660;-67
2020/12/05 11:40:46;;;;;;;0.87;0.53;;;6.80;99.90;;;;;;4918499;29;20205;-66
2020/12/05 11:43:12;;;;;;;3.23;0.60;;;6.70;99.90;;;;;;4915413;29;20233;-66
2020/12/05 11:45:38;;;;;;;0.73;0.40;;;6.60;99.90;;;;;;4921938;29;20698;-75
2020/12/05 11:48:05;;;;;;;0.97;0.60;;;6.50;99.90;;;;;;4917946;29;20220;-68
2020/12/05 11:50:31;;;;;;;0.73;0.40;;;6.50;99.90;;;;;;4915601;29;20236;-68
2020/12/05 11:52:57;;;;;;;1.23;0.50;;;6.60;99.90;;;;;;4914146;29;20620;-69
2020/12/05 11:55:24;;;;;;;2.43;0.43;;;6.70;99.90;;;;;;4919395;29;20248;-70
2020/12/05 11:57:50;;;;;;;1.77;0.57;;;6.80;99.90;;;;;;4920078;29;20217;-67
2020/12/05 12:00:16;;;;;;;0.87;0.40;;;6.90;99.90;;;;;;4916051;29;20216;-68
2020/12/05 12:02:42;;;;;;;1.23;0.40;;;7.00;99.90;;;;;;4922216;29;20315;-72
2020/12/05 12:05:10;;;;;;;3.57;0.50;;;7.10;99.90;;;;;;4915278;29;20657;-67
2020/12/05 12:07:36;;;;;;;1.00;0.50;;;7.10;99.90;;;;;;4917225;29;20221;-68
2020/12/05 12:10:03;;;;;;;0.67;0.47;;;7.10;99.90;;;;;;4917012;29;20222;-67
2020/12/05 12:12:29;;;;;;;1.93;0.80;;;7.10;99.90;;;;;;4925582;29;20672;-70
2020/12/05 12:14:55;;;;;;;0.60;0.50;;;7.10;99.90;;;;;;4918777;29;20241;-73
2020/12/05 12:17:21;;;;;;;1.00;0.50;;;7.10;99.90;;;;;;4921113;29;20209;-72
2020/12/05 12:19:47;;;;;;;1.03;0.70;;;7.00;99.90;;;;;;4918540;29;20299;-70
2020/12/05 12:22:14;;;;;;;1.47;0.40;;;7.00;99.90;;;;;;4929222;29;20212;-70
2020/12/05 12:24:41;;;;;;;1.40;0.60;;;7.00;99.90;;;;;;4935866;29;20213;-70
2020/12/05 12:27:07;;;;;;;0.70;0.50;;;7.00;99.90;;;;;;4935410;29;20232;-70
2020/12/05 12:29:33;;;;;;;0.73;0.50;;;6.90;99.90;;;;;;4934544;29;20691;-70
2020/12/05 12:31:59;;;;;;;0.97;0.50;;;6.80;99.90;;;;;;4935224;29;20213;-72
2020/12/05 12:34:25;;;;;;;3.03;0.60;;;6.90;99.90;;;;;;4935458;29;20244;-70
2020/12/05 12:36:52;;;;;;;1.47;0.50;;;6.80;99.90;;;;;;4935733;29;20205;-72
2020/12/05 12:39:19;;;;;;;1.30;0.47;;;6.80;99.90;;;;;;4935643;29;20711;-70
2020/12/05 12:41:45;;;;;;;1.30;0.67;;;7.00;99.90;;;;;;4935248;29;20212;-70
2020/12/05 12:44:12;;;;;;;1.13;0.60;;;6.90;99.90;;;;;;4935297;29;20237;-70
2020/12/05 12:46:47;;;;;;;3.73;0.50;;;6.90;99.90;;;;;;4934481;29;20223;-72
2020/12/05 12:49:13;;;;;;;0.40;0.40;;;7.00;99.90;;;;;;4935337;29;20212;-72
2020/12/05 12:51:40;;;;;;;0.50;0.47;;;7.10;99.90;;;;;;4935089;29;20593;-71
2020/12/05 12:54:06;;;;;;;1.70;0.50;;;7.10;99.90;;;;;;4934802;29;20228;-73
2020/12/05 12:56:36;;;;;;;0.70;0.53;;;7.10;99.90;;;;;;4930883;29;20213;-71
2020/12/05 12:59:02;;;;;;;1.03;0.70;;;7.20;99.90;;;;;;4926442;29;20288;-73
2020/12/05 13:01:28;;;;;;;2.87;0.57;;;7.20;99.90;;;;;;4924809;29;20201;-70
2020/12/05 13:03:54;;;;;;;0.83;0.53;;;7.20;99.90;;;;;;4920250;29;20240;-72
2020/12/05 13:06:21;;;;;;;1.27;0.50;;;7.30;99.90;;;;;;4917109;29;20669;-71
2020/12/05 13:08:48;;;;;;;1.47;0.57;;;7.40;99.90;;;;;;4914285;29;20206;-71
2020/12/05 13:11:15;;;;;;;0.70;0.40;;;7.40;99.90;;;;;;4925788;29;20219;-71
2020/12/05 13:13:43;;;;;;;0.90;0.57;;;7.20;99.90;;;;;;4933937;29;20233;-78
2020/12/05 13:16:10;;;;;;;1.47;0.40;;;7.30;99.90;;;;;;4933695;29;20237;-78
2020/12/05 13:18:36;;;;;;;0.73;0.47;;;7.60;99.90;;;;;;4933732;29;20215;-72
2020/12/05 13:21:03;;;;;;;0.57;0.50;;;7.60;99.90;;;;;;4934054;29;20216;-71
2020/12/05 13:23:29;;;;;;;0.63;0.33;;;7.40;99.90;;;;;;4932943;29;20229;-71
2020/12/05 13:25:55;;;;;;;0.80;0.50;;;7.40;99.90;;;;;;4936075;29;20213;-71
2020/12/05 13:28:21;;;;;;;4.53;0.50;;;7.30;99.90;;;;;;4937025;29;20219;-73
2020/12/05 13:30:48;;;;;;;1.33;0.67;;;7.20;99.90;;;;;;4936621;29;20663;-73
2020/12/05 13:33:15;;;;;;;1.20;0.57;;;7.10;99.90;;;;;;4931448;29;20711;-75
2020/12/05 13:35:41;;;;;;;1.27;0.60;;;7.00;99.90;;;;;;4918384;29;20243;-75
2020/12/05 13:38:07;;;;;;;1.13;0.60;;;7.00;99.90;;;;;;4918033;29;20210;-74
2020/12/05 13:40:33;;;;;;;0.60;0.40;;;7.00;99.90;;;;;;4923991;29;20205;-76
2020/12/05 13:43:00;;;;;;;1.10;0.70;;;7.10;99.90;;;;;;4936597;29;20243;-76
2020/12/05 13:45:26;;;;;;;1.20;0.50;;;7.10;99.90;;;;;;4937004;29;20213;-76
2020/12/05 13:47:53;;;;;;;1.30;0.73;;;7.30;99.90;;;;;;4936475;29;20316;-76
2020/12/05 13:50:19;;;;;;;0.97;0.50;;;7.40;99.90;;;;;;4936485;29;20205;-74
2020/12/05 13:52:46;;;;;;;0.77;0.47;;;7.40;99.90;;;;;;4936222;29;20232;-77
2020/12/05 13:55:12;;;;;;;1.40;0.50;;;7.40;99.90;;;;;;4936832;29;20236;-78
2020/12/05 13:57:39;;;;;;;0.60;0.40;;;7.30;99.90;;;;;;4937028;29;20209;-78
2020/12/05 14:00:06;;;;;;;2.20;0.70;;;7.30;99.90;;;;;;4935813;29;20292;-75
2020/12/05 14:02:32;;;;;;;0.77;0.50;;;7.30;99.90;;;;;;4936789;29;20240;-74
2020/12/05 14:04:59;;;;;;;0.70;0.50;;;7.50;99.90;;;;;;4937249;29;20212;-74
2020/12/05 14:07:25;;;;;;;0.77;0.40;;;7.60;99.90;;;;;;4916052;29;20585;-75
2020/12/05 14:09:52;;;;;;;1.63;0.70;;;7.20;99.90;;;;;;4918168;29;20232;-72
2020/12/05 14:12:18;;;;;;;0.70;0.57;;;7.20;99.90;;;;;;4951174;29;20220;-69
2020/12/05 14:14:44;;;;;;;0.90;0.60;;;7.00;99.90;;;;;;4934488;29;20248;-70
2020/12/05 14:17:11;;;;;;;0.77;0.70;;;7.00;99.90;;;;;;4935308;29;20217;-72
2020/12/05 14:19:41;;;;;;;0.70;0.50;;;6.90;99.90;;;;;;4949826;29;20667;-73
2020/12/05 14:22:08;;;;;;;1.30;0.90;;;6.70;99.90;;;;;;4950254;29;20327;-71
2020/12/05 14:24:35;;;;;;;1.57;0.53;;;6.70;99.90;;;;;;4934541;29;20229;-70
2020/12/05 14:27:01;;;;;;;0.83;0.63;;;6.60;99.90;;;;;;4942196;29;20927;-69
2020/12/05 14:29:28;;;;;;;1.47;0.70;;;6.70;99.90;;;;;;4943211;28;20213;-75
2020/12/05 14:31:54;;;;;;;1.57;0.70;;;6.70;99.90;;;;;;4934514;29;20545;-71
2020/12/05 14:34:22;;;;;;;0.70;0.53;;;6.60;99.90;;;;;;4935208;29;20295;-69
2020/12/05 14:36:48;;;;;;;1.27;0.50;;;6.40;99.90;;;;;;4934918;29;20211;-71
2020/12/05 14:39:15;;;;;;;0.73;0.40;;;6.50;99.90;;;;;;4936111;29;20213;-72
2020/12/05 14:41:42;;;;;;;1.37;0.53;;;6.40;99.90;;;;;;4935106;29;20212;-71
2020/12/05 14:44:08;;;;;;;1.10;0.90;;;6.30;99.90;;;;;;4935390;29;20228;-72
2020/12/05 14:46:35;;;;;;;0.83;0.47;;;6.40;99.90;;;;;;4935382;29;20586;-71
2020/12/05 14:49:03;;;;;;;1.00;0.50;;;6.50;99.90;;;;;;4935732;29;20209;-71
2020/12/05 14:51:29;;;;;;;1.40;0.60;;;6.50;99.90;;;;;;4935379;29;20239;-70
2020/12/05 14:53:56;;;;;;;1.10;0.57;;;6.60;99.90;;;;;;4935456;29;20588;-72
2020/12/05 14:56:23;;;;;;;1.20;0.50;;;6.60;99.90;;;;;;4936209;29;20244;-72
2020/12/05 14:58:49;;;;;;;1.33;0.50;;;6.40;99.90;;;;;;4935669;29;20205;-72
2020/12/05 15:01:15;;;;;;;1.70;0.50;;;6.30;99.90;;;;;;4935412;29;20209;-72
2020/12/05 15:03:41;;;;;;;0.73;0.60;;;6.30;99.90;;;;;;4935677;29;20232;-73
2020/12/05 15:06:13;;;;;;;0.60;0.40;;;6.50;99.90;;;;;;4934854;29;20224;-73
2020/12/05 15:08:39;;;;;;;0.60;0.50;;;6.50;99.90;;;;;;4935659;29;20736;-70
2020/12/05 15:11:05;;;;;;;1.10;0.60;;;6.50;99.90;;;;;;4934167;29;20216;-71
2020/12/05 15:13:32;;;;;;;0.67;0.50;;;6.40;99.90;;;;;;4929343;29;20256;-71
2020/12/05 15:15:58;;;;;;;1.13;0.40;;;6.20;99.90;;;;;;4935570;29;20243;-71
2020/12/05 15:18:24;;;;;;;1.83;0.60;;;6.00;99.90;;;;;;4935227;29;20220;-71
2020/12/05 15:20:53;;;;;;;0.90;0.60;;;5.90;99.90;;;;;;4934899;29;20209;-71
2020/12/05 15:23:20;;;;;;;0.70;0.50;;;5.90;99.90;;;;;;4935483;29;20316;-71
2020/12/05 15:25:46;;;;;;;1.30;0.57;;;5.90;99.90;;;;;;4935504;29;20221;-71
2020/12/05 15:28:13;;;;;;;0.70;0.47;;;5.90;99.90;;;;;;4935250;29;20208;-71
2020/12/05 15:30:40;;;;;;;1.07;0.57;;;5.90;99.90;;;;;;4934630;29;20209;-71
2020/12/05 15:33:07;;;;;;;1.10;0.60;;;6.00;99.90;;;;;;4924123;29;20222;-71
2020/12/05 15:35:33;;;;;;;2.03;0.50;;;6.00;99.90;;;;;;4924559;29;20225;-71
2020/12/05 15:38:00;;;;;;;1.47;0.87;;;6.10;99.90;;;;;;4926380;29;20212;-71
2020/12/05 15:40:26;;;;;;;2.00;0.80;;;6.10;99.90;;;;;;4929011;29;20213;-71
2020/12/05 15:42:52;;;;;;;1.40;0.80;;;6.10;99.90;;;;;;4935157;29;20236;-71
2020/12/05 15:45:19;;;;;;;1.63;0.80;;;6.00;99.90;;;;;;4934819;29;20209;-71
2020/12/05 15:47:46;;;;;;;2.57;0.80;;;6.00;99.90;;;;;;4934358;29;20703;-71
2020/12/05 15:50:13;;;;;;;1.37;0.70;;;6.20;99.90;;;;;;4934038;29;20212;-71
2020/12/05 15:52:39;;;;;;;1.80;0.63;;;6.20;99.90;;;;;;4934749;29;20236;-71
2020/12/05 15:55:06;;;;;;;1.53;0.73;;;6.10;99.90;;;;;;4933685;29;20240;-71
2020/12/05 15:57:33;;;;;;;1.20;0.50;;;6.10;99.90;;;;;;4934261;29;20212;-71
2020/12/05 15:59:59;;;;;;;0.70;0.60;;;6.00;99.90;;;;;;4934584;29;20668;-70
2020/12/05 16:02:26;;;;;;;3.70;0.70;;;6.00;99.90;;;;;;4934288;29;20212;-70
2020/12/05 16:04:53;;;;;;;1.57;0.70;;;5.90;99.90;;;;;;4933888;29;20675;-70
2020/12/05 16:07:20;;;;;;;1.67;0.80;;;5.70;99.90;;;;;;4934278;29;20213;-70
2020/12/05 16:09:46;;;;;;;1.10;0.60;;;5.50;99.90;;;;;;4934717;29;20263;-72
2020/12/05 16:12:13;;;;;;;0.93;0.60;;;5.50;99.90;;;;;;4934330;29;20221;-72
2020/12/05 16:14:40;;;;;;;3.37;1.10;;;5.60;99.90;;;;;;4934502;29;20240;-71
2020/12/05 16:17:06;;;;;;;2.47;0.97;;;5.70;99.90;;;;;;4924193;29;20214;-71
2020/12/05 16:19:32;;;;;;;4.70;1.10;;;5.70;99.90;;;;;;4916952;29;20209;-72
2020/12/05 16:21:59;;;;;;;1.60;0.70;;;5.70;99.90;;;;;;4916723;29;20213;-72
2020/12/05 16:24:26;;;;;;;2.67;1.13;;;5.70;99.90;;;;;;4916260;29;20712;-70
2020/12/05 16:26:53;;;;;;;1.70;0.90;;;5.70;99.90;;;;;;4916408;29;20693;-72
2020/12/05 16:29:19;;;;;;;5.47;0.80;;;5.70;99.90;;;;;;4916479;29;20205;-70
2020/12/05 16:31:45;;;;;;;1.90;0.97;;;5.60;99.90;;;;;;4916526;29;20573;-70
2020/12/05 16:34:11;;;;;;;1.73;0.80;;;5.40;99.90;;;;;;4916608;29;20236;-69
2020/12/05 16:36:38;;;;;;;2.03;0.87;;;5.40;99.90;;;;;;4916844;29;20245;-69
2020/12/05 16:39:05;;;;;;;2.73;1.37;;;5.30;99.90;;;;;;4916685;29;20273;-69
2020/12/05 16:41:31;;;;;;;5.43;1.10;;;5.10;99.90;;;;;;4916709;29;20213;-69
2020/12/05 16:43:58;;;;;;;2.10;0.90;;;5.00;99.90;;;;;;4916723;29;20229;-69
2020/12/05 16:46:24;;;;;;;8.07;1.20;;;5.20;99.90;;;;;;4916140;29;20221;-71
2020/12/05 16:48:50;;;;;;;2.70;1.20;;;5.30;99.90;;;;;;4916729;29;20210;-71
2020/12/05 16:51:17;;;;;;;5.07;1.63;;;5.10;99.90;;;;;;4916898;29;20210;-71
2020/12/05 16:53:43;;;;;;;5.23;2.03;;;5.00;99.90;;;;;;4916917;29;20229;-71
2020/12/05 16:56:10;;;;;;;7.43;2.23;;;5.00;99.90;;;;;;4916525;29;20233;-73
2020/12/05 16:58:37;;;;;;;10.00;2.10;;;4.90;99.90;;;;;;4916649;29;20214;-70
2020/12/05 17:01:03;;;;;;;8.40;2.40;;;4.80;99.90;;;;;;4918909;29;20255;-70
2020/12/05 17:03:29;;;;;;;4.03;1.77;;;4.80;99.90;;;;;;4920525;29;20229;-70
2020/12/05 17:05:55;;;;;;;3.07;1.90;;;4.90;99.90;;;;;;4920492;29;20213;-71
2020/12/05 17:08:21;;;;;;;3.10;1.50;;;5.00;99.90;;;;;;4920608;29;20210;-70
2020/12/05 17:10:48;;;;;;;6.00;1.90;;;5.00;99.90;;;;;;4920419;29;20213;-70
2020/12/05 17:13:15;;;;;;;3.13;1.80;;;5.10;99.90;;;;;;4920089;29;20727;-71
2020/12/05 17:15:42;;;;;;;8.77;1.93;;;5.10;99.90;;;;;;4920156;29;20241;-70
2020/12/05 17:18:08;;;;;;;2.90;1.50;;;5.10;99.90;;;;;;4920118;29;20209;-71
2020/12/05 17:20:34;;;;;;;3.63;1.97;;;5.10;99.90;;;;;;4920124;29;20220;-70
2020/12/05 17:23:01;;;;;;;3.07;1.60;;;5.10;99.90;;;;;;4919907;29;20238;-71
2020/12/05 17:25:27;;;;;;;4.13;1.93;;;5.00;99.90;;;;;;4919957;29;20213;-71
2020/12/05 17:27:53;;;;;;;5.30;2.20;;;4.90;99.90;;;;;;4920158;29;20213;-70
2020/12/05 17:30:20;;;;;;;6.80;2.47;;;5.00;99.90;;;;;;4919784;29;20573;-71
2020/12/05 17:32:46;;;;;;;9.90;2.47;;;4.80;99.90;;;;;;4919648;29;20264;-71
2020/12/05 17:35:12;;;;;;;5.43;2.07;;;4.60;99.90;;;;;;4919979;29;20241;-71
2020/12/05 17:37:39;;;;;;;5.57;2.47;;;4.50;99.90;;;;;;4919830;29;20210;-71
2020/12/05 17:40:05;;;;;;;13.00;2.63;;;4.60;99.90;;;;;;4919791;29;20210;-71
2020/12/05 17:42:31;;;;;;;7.83;2.47;;;4.50;99.90;;;;;;4919653;29;20216;-71
2020/12/05 17:44:58;;;;;;;6.43;2.53;;;4.30;99.90;;;;;;4919791;29;20210;-71
2020/12/05 17:47:25;;;;;;;7.73;2.50;;;4.20;99.90;;;;;;4919623;29;20237;-72
2020/12/05 17:49:52;;;;;;;5.60;2.30;;;4.10;99.90;;;;;;4919567;29;20206;-71
2020/12/05 17:52:18;;;;;;;5.67;2.47;;;4.00;99.90;;;;;;4919452;29;20220;-72
2020/12/05 17:54:44;;;;;;;5.87;2.37;;;3.90;99.90;;;;;;4919308;29;20213;-71
2020/12/05 17:57:11;;;;;;;10.17;2.93;;;3.90;99.90;;;;;;4919051;29;20214;-71
2020/12/05 17:59:38;;;;;;;7.67;3.53;;;3.80;99.90;;;;;;4919369;29;20236;-71
2020/12/05 18:02:05;;;;;;;8.43;2.77;;;3.90;99.90;;;;;;4919173;29;20229;-71
2020/12/05 18:04:32;;;;;;;15.27;5.13;;;3.90;99.90;;;;;;4919279;29;20225;-71
2020/12/05 18:07:00;;;;;;;11.17;3.97;;;3.90;99.90;;;;;;4919229;29;20217;-72
2020/12/05 18:09:28;;;;;;;8.43;3.57;;;3.80;99.90;;;;;;4919255;29;20206;-71
2020/12/05 18:11:56;;;;;;;15.00;3.83;;;3.80;99.90;;;;;;4918808;29;20217;-72
2020/12/05 18:14:24;;;;;;;9.00;3.80;;;4.00;99.90;;;;;;4919513;29;20237;-72
2020/12/05 18:16:52;;;;;;;8.03;3.13;;;3.90;99.90;;;;;;4919216;29;20245;-71
2020/12/05 18:19:19;;;;;;;8.37;3.67;;;3.90;99.90;;;;;;4919092;29;20209;-72
2020/12/05 18:21:47;;;;;;;8.33;3.73;;;3.80;99.90;;;;;;4919220;29;20218;-71
2020/12/05 18:24:13;;;;;;;13.07;4.13;;;3.70;99.90;;;;;;4918929;29;20230;-72
2020/12/05 18:26:39;;;;;;;9.53;3.53;;;3.70;99.90;;;;;;4919112;29;20209;-72
2020/12/05 18:29:06;;;;;;;11.97;3.77;;;3.60;99.90;;;;;;4919090;29;20216;-73
2020/12/05 18:31:33;;;;;;;7.53;3.90;;;3.60;99.90;;;;;;4919148;29;20221;-72
2020/12/05 18:33:59;;;;;;;8.87;4.23;;;3.50;99.90;;;;;;4918835;29;20240;-72
2020/12/05 18:36:25;;;;;;;11.13;3.70;;;3.40;99.90;;;;;;4918841;29;20237;-72
2020/12/05 18:38:53;;;;;;;9.63;3.97;;;3.40;99.90;;;;;;4918637;29;20558;-72
2020/12/05 18:41:21;;;;;;;15.30;4.47;;;3.40;99.90;;;;;;4919017;29;20217;-72
2020/12/05 18:43:48;;;;;;;10.40;4.23;;;3.30;99.90;;;;;;4918669;29;20230;-72
2020/12/05 18:46:15;;;;;;;12.53;3.40;;;3.40;99.90;;;;;;4918792;29;20312;-74
2020/12/05 18:48:41;;;;;;;8.40;3.83;;;3.40;99.90;;;;;;4918511;29;20213;-72
2020/12/05 18:51:07;;;;;;;18.83;5.27;;;3.30;99.90;;;;;;4918323;29;20212;-72
2020/12/05 18:53:35;;;;;;;22.40;6.93;;;3.20;99.90;;;;;;4918350;29;20234;-72
2020/12/05 18:56:04;;;;;;;17.77;6.37;;;3.10;99.90;;;;;;4918612;29;20233;-72
2020/12/05 18:58:30;;;;;;;16.77;7.50;;;3.20;99.90;;;;;;4918687;29;20205;-72
2020/12/05 19:00:57;;;;;;;17.07;6.97;;;3.20;99.90;;;;;;4918480;29;20210;-72
2020/12/05 19:03:23;;;;;;;22.80;8.03;;;3.10;99.90;;;;;;4918179;29;20229;-73
2020/12/05 19:05:50;;;;;;;25.20;8.27;;;3.10;99.90;;;;;;4918284;29;20210;-72
2020/12/05 19:08:16;;;;;;;26.00;9.73;;;2.90;99.90;;;;;;4918315;29;20216;-72
2020/12/05 19:10:42;;;;;;;22.93;9.63;;;2.90;99.90;;;;;;4918179;29;20672;-72
2020/12/05 19:13:09;;;;;;;29.37;9.37;;;2.90;99.90;;;;;;4918224;29;20236;-72
2020/12/05 19:15:35;;;;;;;22.83;9.10;;;2.80;99.90;;;;;;4917983;29;20237;-72
2020/12/05 19:18:02;;;;;;;23.80;9.40;;;2.80;99.90;;;;;;4918076;29;20216;-72
2020/12/05 19:20:28;;;;;;;21.47;9.50;;;2.80;99.90;;;;;;4917880;29;20691;-72
2020/12/05 19:22:54;;;;;;;17.60;8.60;;;2.80;99.90;;;;;;4917298;29;20238;-72
2020/12/05 19:25:20;;;;;;;15.97;9.23;;;2.80;99.90;;;;;;4917862;29;20217;-72
2020/12/05 19:27:46;;;;;;;25.03;9.10;;;2.80;99.90;;;;;;4918049;29;20217;-72
2020/12/05 19:30:13;;;;;;;21.13;9.17;;;2.80;99.90;;;;;;4917658;29;20692;-72
2020/12/05 19:32:40;;;;;;;19.10;8.70;;;2.80;99.90;;;;;;4917799;29;20233;-72
2020/12/05 19:35:06;;;;;;;25.53;9.67;;;2.70;99.90;;;;;;4917549;29;20236;-72
2020/12/05 19:37:33;;;;;;;23.10;9.43;;;2.60;99.90;;;;;;4917941;29;20210;-72
2020/12/05 19:39:59;;;;;;;23.67;9.97;;;2.60;99.90;;;;;;4917578;29;20665;-72
2020/12/05 19:42:25;;;;;;;17.53;8.50;;;2.60;99.90;;;;;;4917751;29;20210;-72
2020/12/05 19:44:51;;;;;;;18.87;9.37;;;2.60;99.90;;;;;;4917612;29;20217;-72
2020/12/05 19:47:18;;;;;;;16.33;8.43;;;2.60;99.90;;;;;;4917372;29;20217;-72
2020/12/05 19:49:44;;;;;;;21.90;10.30;;;2.50;99.90;;;;;;4917325;29;20218;-72
2020/12/05 19:52:11;;;;;;;19.67;10.13;;;2.50;99.90;;;;;;4917812;29;20213;-72
2020/12/05 19:54:37;;;;;;;18.23;9.07;;;2.50;99.90;;;;;;4917401;29;20260;-72
2020/12/05 19:57:03;;;;;;;23.30;9.13;;;2.40;99.90;;;;;;4917416;29;20237;-72
2020/12/05 19:59:29;;;;;;;19.43;9.40;;;2.40;99.90;;;;;;4917295;29;20209;-72
2020/12/05 20:01:55;;;;;;;22.63;9.40;;;2.50;99.90;;;;;;4917075;29;20210;-72
2020/12/05 20:04:22;;;;;;;18.50;9.43;;;2.40;99.90;;;;;;4916690;29;20241;-72
2020/12/05 20:06:49;;;;;;;16.30;9.10;;;2.40;99.90;;;;;;4917095;29;20210;-73
2020/12/05 20:09:15;;;;;;;25.53;9.93;;;2.30;99.90;;;;;;4917072;29;20214;-72
2020/12/05 20:11:41;;;;;;;19.10;9.53;;;2.30;99.90;;;;;;4916684;29;20689;-72
2020/12/05 20:14:07;;;;;;;19.47;9.90;;;2.30;99.90;;;;;;4916948;29;20233;-72
2020/12/05 20:16:33;;;;;;;19.17;9.47;;;2.20;99.90;;;;;;4916886;29;20248;-72
2020/12/05 20:19:01;;;;;;;24.37;10.43;;;2.10;99.90;;;;;;4916486;29;20554;-73
2020/12/05 20:21:28;;;;;;;21.97;10.60;;;2.10;99.90;;;;;;4916873;29;20209;-74
2020/12/05 20:23:54;;;;;;;23.90;10.67;;;2.20;99.90;;;;;;4916546;29;20570;-73
2020/12/05 20:26:21;;;;;;;31.83;12.90;;;2.10;99.90;;;;;;4916899;29;20220;-73
2020/12/05 20:28:47;;;;;;;27.67;13.27;;;2.10;99.90;;;;;;4916706;29;20301;-73
2020/12/05 20:31:14;;;;;;;25.10;12.00;;;2.10;99.90;;;;;;4916397;29;20572;-74
2020/12/05 20:33:40;;;;;;;32.57;12.37;;;2.10;99.90;;;;;;4916280;29;20236;-74
2020/12/05 20:36:06;;;;;;;22.93;11.33;;;2.30;99.90;;;;;;4916590;29;20705;-74
2020/12/05 20:38:34;;;;;;;24.10;10.93;;;2.30;99.90;;;;;;4916579;29;20209;-74
2020/12/05 20:41:00;;;;;;;29.83;12.80;;;2.20;99.90;;;;;;4916615;29;20216;-74
2020/12/05 20:43:27;;;;;;;26.13;12.10;;;2.10;99.90;;;;;;4916277;29;20226;-74
2020/12/05 20:45:53;;;;;;;27.17;12.73;;;2.00;99.90;;;;;;4916307;29;20217;-74
2020/12/05 20:48:19;;;;;;;22.23;10.33;;;2.00;99.90;;;;;;4916078;29;20205;-74
2020/12/05 20:50:45;;;;;;;18.73;8.90;;;2.00;99.90;;;;;;4916688;29;20217;-74
2020/12/05 20:53:12;;;;;;;18.07;9.23;;;2.00;99.90;;;;;;4916313;29;20230;-74
2020/12/05 20:55:43;;;;;;;17.20;7.80;;;1.90;99.90;;;;;;4914685;29;20237;-74
2020/12/05 20:58:10;;;;;;;14.53;8.47;;;1.90;99.90;;;;;;4916257;29;20212;-74
2020/12/05 21:00:36;;;;;;;14.67;8.03;;;1.80;99.90;;;;;;4916104;29;20225;-74
2020/12/05 21:03:04;;;;;;;14.63;7.90;;;1.80;99.90;;;;;;4916440;29;20234;-74
2020/12/05 21:05:30;;;;;;;17.23;7.47;;;1.80;99.90;;;;;;4918606;29;20206;-74
2020/12/05 21:07:56;;;;;;;17.80;7.23;;;1.80;99.90;;;;;;4916391;29;20577;-74
2020/12/05 21:10:23;;;;;;;17.80;6.97;;;1.80;99.90;;;;;;4916385;29;20209;-74
2020/12/05 21:12:50;;;;;;;14.10;7.07;;;1.80;99.90;;;;;;4921419;29;20221;-74
2020/12/05 21:15:16;;;;;;;12.67;6.47;;;1.80;99.90;;;;;;4931754;29;20233;-74
2020/12/05 21:17:44;;;;;;;13.23;6.07;;;1.90;99.90;;;;;;4933662;29;20204;-74
2020/12/05 21:20:11;;;;;;;10.73;6.27;;;1.80;99.90;;;;;;4924768;29;20201;-74
2020/12/05 21:22:37;;;;;;;14.40;7.00;;;1.80;99.90;;;;;;4923059;29;20232;-74
2020/12/05 21:25:03;;;;;;;13.17;6.40;;;1.80;99.90;;;;;;4917916;29;20213;-74
2020/12/05 21:27:29;;;;;;;14.33;6.87;;;1.80;99.90;;;;;;4923379;29;20201;-74
2020/12/05 21:29:56;;;;;;;14.80;7.10;;;1.80;99.90;;;;;;4925554;29;20572;-74
2020/12/05 21:32:23;;;;;;;12.27;7.10;;;1.80;99.90;;;;;;4923934;29;20222;-74
2020/12/05 21:34:49;;;;;;;9.90;6.10;;;1.80;99.90;;;;;;4924942;29;20216;-74
2020/12/05 21:37:15;;;;;;;14.77;6.77;;;1.90;99.90;;;;;;4926150;29;20226;-74
2020/12/05 21:39:42;;;;;;;11.07;5.97;;;2.00;99.90;;;;;;4923995;29;20206;-74
2020/12/05 21:42:08;;;;;;;14.77;5.97;;;1.90;99.90;;;;;;4924784;29;20201;-74
2020/12/05 21:44:34;;;;;;;15.17;5.83;;;1.80;99.90;;;;;;4925679;29;20233;-74
2020/12/05 21:47:01;;;;;;;11.37;5.50;;;2.00;99.90;;;;;;4926574;29;20695;-74
2020/12/05 21:49:27;;;;;;;12.63;5.83;;;1.90;99.90;;;;;;4928509;29;20208;-74
2020/12/05 21:51:53;;;;;;;12.13;5.57;;;1.90;99.90;;;;;;4928888;29;20213;-74
2020/12/05 21:54:20;;;;;;;12.40;5.37;;;1.80;99.90;;;;;;4927111;29;20218;-74
2020/12/05 21:56:50;;;;;;;11.67;5.67;;;1.80;99.90;;;;;;4928145;29;20699;-74
2020/12/05 21:59:16;;;;;;;9.10;5.23;;;1.90;99.90;;;;;;4929251;29;20232;-74
2020/12/05 22:01:43;;;;;;;9.23;4.97;;;1.80;99.90;;;;;;4927090;29;20217;-74
2020/12/05 22:04:10;;;;;;;10.83;4.97;;;1.70;99.90;;;;;;4928142;29;20696;-74
2020/12/05 22:06:37;;;;;;;10.63;5.07;;;1.80;99.90;;;;;;4925934;29;20209;-73
2020/12/05 22:09:04;;;;;;;11.60;4.90;;;1.70;99.90;;;;;;4931353;29;20228;-70
2020/12/05 22:11:30;;;;;;;13.07;5.43;;;1.80;99.90;;;;;;4930184;29;20205;-73
2020/12/05 22:13:56;;;;;;;10.23;5.30;;;1.80;99.90;;;;;;4932753;29;20225;-75
2020/12/05 22:16:22;;;;;;;8.13;5.07;;;1.80;99.90;;;;;;4940397;29;20320;-74
2020/12/05 22:18:49;;;;;;;8.70;5.10;;;1.90;99.90;;;;;;4929507;29;20208;-75
2020/12/05 22:21:21;;;;;;;11.77;5.63;;;1.90;99.90;;;;;;4930855;29;20213;-74
2020/12/05 22:23:47;;;;;;;7.83;4.57;;;1.90;99.90;;;;;;4937672;29;20247;-73
2020/12/05 22:26:13;;;;;;;6.30;4.10;;;1.80;99.90;;;;;;4943680;29;20212;-74
2020/12/05 22:28:40;;;;;;;8.70;4.70;;;1.80;99.90;;;;;;4931893;29;20205;-78
2020/12/05 22:31:06;;;;;;;11.47;4.47;;;1.70;99.90;;;;;;4939337;29;20204;-72
2020/12/05 22:33:32;;;;;;;9.17;4.63;;;1.50;99.90;;;;;;4943407;29;20229;-74
2020/12/05 22:35:58;;;;;;;9.37;5.27;;;1.60;99.90;;;;;;4933281;29;20592;-74